Time;durP1;ratioP1;P1;durP2;ratioP2;P2;SDS_P1;SDS_P2;PMS_P1;PMS_P2;Temp;Humidity;BMP_temperature;BMP_pressure;BME280_temperature;BME280_humidity;BME280_pressure;Samples;Min_cycle;Max_cycle;Signal;HPM_P1;HPM_P2
2021/09/13 00:00:19;;;;;;;1.45;0.40;;;;;;;12.85;100.00;101040.22;4968253;28;20054;-81
2021/09/13 00:02:52;;;;;;;1.40;0.40;;;;;;;12.85;100.00;101045.69;4980447;28;20054;-81
2021/09/13 00:05:25;;;;;;;0.40;0.40;;;;;;;12.79;100.00;101032.38;4983449;28;20055;-80
2021/09/13 00:07:56;;;;;;;0.57;0.30;;;;;;;12.98;100.00;101037.94;4971180;28;20061;-81
2021/09/13 00:10:30;;;;;;;0.52;0.40;;;;;;;12.98;100.00;101041.50;4967492;28;20055;-81
2021/09/13 00:13:04;;;;;;;0.47;0.40;;;;;;;13.00;100.00;101041.22;4984763;28;20373;-81
2021/09/13 00:15:38;;;;;;;0.65;0.40;;;;;;;12.98;100.00;101048.88;4972226;28;20491;-81
2021/09/13 00:18:11;;;;;;;0.30;0.30;;;;;;;13.08;100.00;101046.88;4971668;28;20420;-81
2021/09/13 00:20:40;;;;;;;0.98;0.50;;;;;;;13.14;100.00;101049.56;4966073;28;20392;-81
2021/09/13 00:23:13;;;;;;;0.90;0.38;;;;;;;13.06;100.00;101045.53;4969686;28;20047;-81
2021/09/13 00:25:49;;;;;;;0.63;0.30;;;;;;;13.06;100.00;101053.72;4971122;28;20486;-81
2021/09/13 00:28:23;;;;;;;0.30;0.30;;;;;;;13.13;100.00;101051.47;4971884;28;20046;-80
2021/09/13 00:30:52;;;;;;;0.30;0.30;;;;;;;13.00;100.00;101052.94;4971739;28;20062;-81
2021/09/13 00:33:25;;;;;;;0.47;0.30;;;;;;;13.12;100.00;101051.75;4969947;28;20061;-81
2021/09/13 00:35:59;;;;;;;0.60;0.40;;;;;;;13.09;100.00;101053.13;4987818;28;20058;-82
2021/09/13 00:38:28;;;;;;;0.95;0.40;;;;;;;13.02;100.00;101056.22;4972529;28;20062;-82
2021/09/13 00:40:57;;;;;;;1.00;0.40;;;;;;;13.00;100.00;101052.16;4972168;28;20055;-81
2021/09/13 00:43:31;;;;;;;0.63;0.40;;;;;;;13.01;100.00;101048.28;4970062;28;20054;-81
2021/09/13 00:46:07;;;;;;;0.35;0.30;;;;;;;13.13;100.00;101039.72;4970066;28;20073;-82
2021/09/13 00:48:40;;;;;;;0.47;0.35;;;;;;;13.04;100.00;101045.00;4954788;28;20054;-82
2021/09/13 00:51:08;;;;;;;0.60;0.40;;;;;;;13.04;100.00;101043.06;4967245;28;20055;-82
2021/09/13 00:53:41;;;;;;;0.40;0.40;;;;;;;13.04;100.00;101050.47;4986932;28;20084;-82
2021/09/13 00:56:16;;;;;;;0.35;0.30;;;;;;;12.96;100.00;101048.34;4971234;28;20043;-82
2021/09/13 00:58:53;;;;;;;0.73;0.40;;;;;;;12.96;100.00;101038.22;4970929;28;20058;-82
2021/09/13 01:01:21;;;;;;;0.43;0.28;;;;;;;12.92;100.00;101039.91;4967316;28;20455;-82
2021/09/13 01:03:49;;;;;;;0.55;0.35;;;;;;;12.82;100.00;101037.28;4971356;28;20062;-81
2021/09/13 01:06:18;;;;;;;0.32;0.30;;;;;;;12.81;100.00;101041.09;4971444;28;20054;-81
2021/09/13 01:08:51;;;;;;;1.30;0.50;;;;;;;12.76;100.00;101047.44;4971830;28;20047;-81
2021/09/13 01:11:21;;;;;;;0.52;0.30;;;;;;;12.81;100.00;101038.38;4969896;28;20054;-82
2021/09/13 01:13:55;;;;;;;1.42;0.40;;;;;;;12.75;100.00;101035.69;4970715;28;20490;-82
2021/09/13 01:16:23;;;;;;;1.15;0.30;;;;;;;12.81;100.00;101049.28;4986734;28;20051;-81
2021/09/13 01:18:57;;;;;;;0.30;0.30;;;;;;;12.73;100.00;101042.53;4969613;28;20527;-81
2021/09/13 01:21:32;;;;;;;0.98;0.30;;;;;;;12.80;100.00;101040.31;4969200;28;20601;-82
2021/09/13 01:24:09;;;;;;;0.30;0.30;;;;;;;12.78;100.00;101038.94;4962191;28;20051;-82
2021/09/13 01:26:42;;;;;;;0.85;0.50;;;;;;;12.71;100.00;101042.81;4959179;28;20054;-82
2021/09/13 01:29:20;;;;;;;0.52;0.35;;;;;;;12.68;100.00;101039.84;4970555;28;20057;-82
2021/09/13 01:31:54;;;;;;;2.30;0.50;;;;;;;12.61;100.00;101037.44;4969544;28;20062;-82
2021/09/13 01:34:33;;;;;;;0.93;0.40;;;;;;;12.63;100.00;101039.88;4968630;28;20408;-81
2021/09/13 01:37:01;;;;;;;1.75;0.40;;;;;;;12.62;100.00;101038.25;4969682;28;20415;-82
2021/09/13 01:39:36;;;;;;;0.57;0.38;;;;;;;12.66;100.00;101042.03;4962751;28;20059;-81
2021/09/13 01:42:13;;;;;;;0.73;0.30;;;;;;;12.74;100.00;101036.78;4985550;28;20050;-81
2021/09/13 01:44:47;;;;;;;0.60;0.45;;;;;;;12.83;100.00;101042.44;4959998;28;20043;-81
2021/09/13 01:47:20;;;;;;;0.60;0.40;;;;;;;12.86;100.00;101050.06;4960128;28;20526;-82
2021/09/13 01:49:50;;;;;;;0.65;0.30;;;;;;;12.97;100.00;101048.06;4981446;28;20058;-81
2021/09/13 01:52:23;;;;;;;1.20;0.50;;;;;;;12.90;100.00;101045.66;4969770;28;20050;-81
2021/09/13 01:54:59;;;;;;;0.50;0.40;;;;;;;12.96;100.00;101053.81;4964632;28;20373;-81
2021/09/13 01:57:32;;;;;;;0.73;0.40;;;;;;;13.04;100.00;101047.75;4983753;28;20050;-81
2021/09/13 02:00:08;;;;;;;0.55;0.45;;;;;;;13.00;100.00;101042.03;4984035;28;20062;-81
2021/09/13 02:02:41;;;;;;;1.02;0.40;;;;;;;13.06;100.00;101051.81;4958594;28;20057;-82
2021/09/13 02:05:20;;;;;;;1.23;0.52;;;;;;;13.02;100.00;101045.28;4960844;28;20047;-81
2021/09/13 02:07:56;;;;;;;0.88;0.40;;;;;;;12.99;100.00;101054.03;4970152;28;20059;-81
2021/09/13 02:10:31;;;;;;;1.75;0.45;;;;;;;13.00;100.00;101052.16;4961668;28;20055;-81
2021/09/13 02:12:59;;;;;;;0.77;0.52;;;;;;;13.03;100.00;101054.28;4969712;28;20053;-80
2021/09/13 02:15:36;;;;;;;0.57;0.43;;;;;;;13.04;100.00;101055.94;4985566;28;20047;-81
2021/09/13 02:18:09;;;;;;;1.23;0.50;;;;;;;13.07;100.00;101050.69;4966156;28;20047;-81
2021/09/13 02:20:52;;;;;;;1.10;0.60;;;;;;;13.00;100.00;101052.94;4963727;28;20042;-81
2021/09/13 02:23:26;;;;;;;0.63;0.43;;;;;;;13.13;100.00;101059.66;4962628;28;20058;-81
2021/09/13 02:26:07;;;;;;;1.08;0.50;;;;;;;13.14;100.00;101064.03;4966794;28;20059;-82
2021/09/13 02:28:42;;;;;;;0.40;0.37;;;;;;;13.15;100.00;101059.38;4968525;28;20069;-82
2021/09/13 02:31:15;;;;;;;0.45;0.40;;;;;;;13.15;100.00;101068.41;4969605;28;20368;-82
2021/09/13 02:33:48;;;;;;;0.57;0.40;;;;;;;13.20;100.00;101067.53;4968010;28;20735;-81
2021/09/13 02:36:22;;;;;;;1.30;0.40;;;;;;;13.19;100.00;101069.44;4979686;28;20503;-81
2021/09/13 02:38:55;;;;;;;0.93;0.50;;;;;;;13.13;100.00;101064.31;4964210;28;20066;-81
2021/09/13 02:41:30;;;;;;;1.77;0.60;;;;;;;13.14;100.00;101065.94;4968090;28;20055;-81
2021/09/13 02:43:58;;;;;;;0.90;0.60;;;;;;;13.21;100.00;101071.88;4966730;28;20050;-81
2021/09/13 02:46:32;;;;;;;0.65;0.40;;;;;;;13.22;100.00;101077.06;4983888;28;20050;-81
2021/09/13 02:49:06;;;;;;;0.57;0.40;;;;;;;13.22;100.00;101081.72;4961818;28;20035;-81
2021/09/13 02:51:40;;;;;;;0.68;0.43;;;;;;;13.20;100.00;101081.19;4963353;28;20046;-81
2021/09/13 02:54:09;;;;;;;1.13;0.40;;;;;;;13.21;100.00;101088.28;4966363;28;20055;-80
2021/09/13 02:56:40;;;;;;;0.40;0.40;;;;;;;13.16;100.00;101086.44;4971138;28;20047;-82
2021/09/13 02:59:15;;;;;;;0.93;0.50;;;;;;;13.19;100.00;101095.97;4970548;28;20066;-83
2021/09/13 03:01:48;;;;;;;1.08;0.57;;;;;;;13.23;100.00;101097.84;4966810;28;20054;-82
2021/09/13 03:04:16;;;;;;;0.88;0.50;;;;;;;13.21;100.00;101100.03;4970643;28;20046;-82
2021/09/13 03:06:51;;;;;;;1.63;0.60;;;;;;;13.20;100.00;101101.16;4970682;28;20062;-82
2021/09/13 03:09:24;;;;;;;0.45;0.45;;;;;;;13.20;100.00;101101.16;4969177;28;20078;-82
2021/09/13 03:11:59;;;;;;;0.80;0.50;;;;;;;13.29;100.00;101106.78;4970103;28;20057;-82
2021/09/13 03:14:27;;;;;;;0.65;0.50;;;;;;;13.25;100.00;101103.00;4970366;28;20054;-81
2021/09/13 03:17:01;;;;;;;1.70;0.65;;;;;;;13.25;100.00;101101.09;4974456;28;20054;-82
2021/09/13 03:19:34;;;;;;;1.50;0.55;;;;;;;13.25;100.00;101101.09;4990932;28;20051;-82
2021/09/13 03:22:09;;;;;;;0.40;0.40;;;;;;;13.31;100.00;101109.25;4973729;28;20063;-83
2021/09/13 03:24:37;;;;;;;0.85;0.60;;;;;;;13.32;100.00;101103.47;4973531;28;20051;-82
2021/09/13 03:27:11;;;;;;;0.40;0.40;;;;;;;13.29;100.00;101098.59;4989656;28;20470;-82
2021/09/13 03:29:45;;;;;;;0.73;0.50;;;;;;;13.48;100.00;101111.56;4975272;28;20047;-80
2021/09/13 03:32:18;;;;;;;1.00;0.50;;;;;;;13.35;100.00;101092.00;4973961;28;20046;-82
2021/09/13 03:34:51;;;;;;;0.63;0.43;;;;;;;13.36;100.00;101099.09;4974117;28;20061;-83
2021/09/13 03:37:25;;;;;;;0.45;0.45;;;;;;;13.35;100.00;101100.19;4968751;28;20435;-83
2021/09/13 03:39:58;;;;;;;0.52;0.45;;;;;;;13.36;100.00;101092.81;4990152;28;20043;-81
2021/09/13 03:42:34;;;;;;;0.70;0.50;;;;;;;13.34;100.00;101100.47;4988309;28;20079;-82
2021/09/13 03:45:09;;;;;;;0.65;0.50;;;;;;;13.29;100.00;101084.94;4984615;28;20061;-82
2021/09/13 03:48:18;;;;;;;1.38;0.60;;;;;;;13.30;100.00;101102.97;4965020;28;20043;-81
2021/09/13 03:50:51;;;;;;;0.50;0.50;;;;;;;13.33;100.00;101107.06;4970003;28;20050;-82
2021/09/13 03:53:20;;;;;;;0.30;0.30;;;;;;;13.33;100.00;101104.31;4988626;28;20376;-82
2021/09/13 03:55:54;;;;;;;1.58;0.65;;;;;;;13.39;100.00;101108.66;4968418;28;20519;-81
2021/09/13 03:58:28;;;;;;;0.55;0.45;;;;;;;13.50;100.00;101106.63;4965764;28;20078;-82
2021/09/13 04:00:57;;;;;;;0.75;0.40;;;;;;;13.44;100.00;101103.94;4974074;28;20388;-82
2021/09/13 04:03:35;;;;;;;0.55;0.50;;;;;;;13.46;100.00;101108.31;4958284;28;20054;-81
2021/09/13 04:06:17;;;;;;;0.40;0.40;;;;;;;13.56;100.00;101105.47;4974407;28;20522;-81
2021/09/13 04:12:24;;;;;;;0.73;0.50;;;;;;;13.46;100.00;101106.38;4966071;28;20062;-81
2021/09/13 04:15:22;;;;;;;0.77;0.50;;;;;;;13.42;100.00;101105.31;4986216;28;20139;-82
2021/09/13 04:18:06;;;;;;;1.48;0.52;;;;;;;13.61;100.00;101094.47;4981309;28;20061;-82
2021/09/13 04:21:14;;;;;;;0.93;0.50;;;;;;;13.43;100.00;101096.03;4967124;28;20062;-82
2021/09/13 04:24:03;;;;;;;0.70;0.50;;;;;;;13.52;100.00;101096.22;4972700;28;20047;-83
2021/09/13 04:26:54;;;;;;;0.70;0.55;;;;;;;13.50;100.00;101099.22;4970242;28;20043;-82
2021/09/13 04:29:46;;;;;;;1.15;0.60;;;;;;;13.59;100.00;101102.16;4980588;28;20063;-82
2021/09/13 04:32:39;;;;;;;0.43;0.32;;;;;;;13.51;100.00;101102.81;4982818;28;20059;-82
2021/09/13 04:35:36;;;;;;;0.30;0.30;;;;;;;13.52;100.00;101104.41;4971648;28;20116;-82
2021/09/13 04:38:28;;;;;;;0.50;0.40;;;;;;;13.49;100.00;101102.25;4966515;28;20051;-81
2021/09/13 04:41:18;;;;;;;1.33;0.47;;;;;;;13.49;100.00;101102.25;4964564;28;20415;-82
2021/09/13 04:44:15;;;;;;;0.75;0.50;;;;;;;13.46;100.00;101100.13;4965262;28;20062;-81
2021/09/13 04:47:07;;;;;;;0.57;0.50;;;;;;;13.64;100.00;101099.34;4963904;28;20059;-82
2021/09/13 04:50:02;;;;;;;1.17;0.60;;;;;;;13.44;100.00;101084.81;4968999;28;20055;-82
2021/09/13 04:53:01;;;;;;;0.73;0.50;;;;;;;13.49;100.00;101105.00;4970292;28;20446;-82
2021/09/13 04:55:34;;;;;;;1.00;0.60;;;;;;;13.47;100.00;101102.56;4988352;28;20043;-82
2021/09/13 04:58:08;;;;;;;1.27;0.60;;;;;;;13.46;100.00;101100.13;4973820;28;20047;-81
2021/09/13 05:00:41;;;;;;;0.70;0.50;;;;;;;13.40;100.00;101102.09;4987758;28;20055;-81
2021/09/13 05:03:15;;;;;;;0.40;0.40;;;;;;;13.41;100.00;101104.53;4972822;28;20058;-83
2021/09/13 05:05:49;;;;;;;0.93;0.50;;;;;;;13.41;100.00;101107.25;4961780;28;20042;-81
2021/09/13 05:08:22;;;;;;;0.45;0.30;;;;;;;13.46;100.00;101102.84;4971839;28;20089;-82
2021/09/13 05:10:58;;;;;;;0.98;0.47;;;;;;;13.33;100.00;101102.38;4970819;28;20043;-81
2021/09/13 05:13:32;;;;;;;0.80;0.43;;;;;;;13.45;100.00;101112.97;4972351;28;20055;-82
2021/09/13 05:16:07;;;;;;;0.50;0.40;;;;;;;13.50;100.00;101112.09;4967917;28;20055;-81
2021/09/13 05:18:42;;;;;;;1.13;0.40;;;;;;;13.33;100.00;101118.78;4972641;28;20061;-81
2021/09/13 05:21:12;;;;;;;0.32;0.30;;;;;;;13.35;100.00;101107.56;4969412;28;20046;-83
2021/09/13 05:23:51;;;;;;;0.50;0.35;;;;;;;13.32;100.00;101111.69;4970331;28;20045;-82
2021/09/13 05:26:24;;;;;;;0.50;0.30;;;;;;;13.29;100.00;101123.19;4986227;28;20085;-81
2021/09/13 05:28:57;;;;;;;1.05;0.50;;;;;;;13.25;100.00;101119.41;4987794;28;20053;-82
2021/09/13 05:31:26;;;;;;;0.77;0.40;;;;;;;13.28;100.00;101118.81;4982169;28;20050;-82
2021/09/13 05:33:55;;;;;;;0.35;0.28;;;;;;;13.41;100.00;101120.94;4970775;28;20503;-82
2021/09/13 05:36:29;;;;;;;0.30;0.30;;;;;;;13.43;100.00;101115.97;4970814;28;20042;-81
2021/09/13 05:39:03;;;;;;;0.88;0.38;;;;;;;13.43;100.00;101113.25;4961728;28;20391;-81
2021/09/13 05:41:51;;;;;;;0.82;0.40;;;;;;;13.53;100.00;101115.06;4971148;28;20054;-81
2021/09/13 05:44:30;;;;;;;0.70;0.40;;;;;;;13.46;100.00;101116.50;4967137;28;20050;-82
2021/09/13 05:47:04;;;;;;;0.52;0.40;;;;;;;13.43;100.00;101126.91;4966503;28;20051;-83
2021/09/13 05:49:32;;;;;;;0.75;0.50;;;;;;;13.58;100.00;101122.41;4987641;28;20051;-81
2021/09/13 05:52:03;;;;;;;1.70;0.30;;;;;;;13.58;100.00;101123.22;4970007;28;20081;-81
2021/09/13 05:54:46;;;;;;;1.08;0.50;;;;;;;13.62;100.00;101134.41;4971915;28;20487;-82
2021/09/13 05:57:20;;;;;;;1.00;0.40;;;;;;;13.57;100.00;101134.44;4970061;28;20054;-81
2021/09/13 05:59:53;;;;;;;0.50;0.30;;;;;;;13.58;100.00;101136.88;4970864;28;20046;-81
2021/09/13 06:02:24;;;;;;;1.23;0.50;;;;;;;13.63;100.00;101140.69;4970006;28;20059;-80
2021/09/13 06:05:23;;;;;;;1.15;0.50;;;;;;;13.64;100.00;101142.31;4970979;28;20773;-82
2021/09/13 06:08:01;;;;;;;0.38;0.30;;;;;;;13.67;100.00;101147.19;4966985;28;20388;-81
2021/09/13 06:10:34;;;;;;;0.98;0.47;;;;;;;13.65;100.00;101143.94;4986951;28;20055;-83
2021/09/13 06:13:03;;;;;;;0.75;0.40;;;;;;;13.68;100.00;101141.44;4986841;28;20062;-82
2021/09/13 06:15:36;;;;;;;0.32;0.30;;;;;;;13.70;100.00;101149.34;4987237;28;20483;-83
2021/09/13 06:18:11;;;;;;;0.32;0.32;;;;;;;13.71;100.00;101159.19;4966710;28;20043;-80
2021/09/13 06:20:44;;;;;;;0.38;0.35;;;;;;;13.67;100.00;101147.19;4970625;28;20062;-80
2021/09/13 06:23:20;;;;;;;0.50;0.30;;;;;;;13.72;100.00;101158.91;4986563;28;20066;-81
2021/09/13 06:25:48;;;;;;;0.35;0.35;;;;;;;13.73;100.00;101151.53;4986597;28;20053;-81
2021/09/13 06:28:22;;;;;;;0.40;0.40;;;;;;;13.89;100.00;101153.00;4970722;28;20042;-81
2021/09/13 06:30:55;;;;;;;1.05;0.50;;;;;;;13.76;100.00;101150.94;4969133;28;20058;-81
2021/09/13 06:33:30;;;;;;;0.80;0.50;;;;;;;13.82;100.00;101163.44;4963529;28;20050;-81
2021/09/13 06:36:06;;;;;;;0.32;0.30;;;;;;;13.86;100.00;101161.75;4957487;28;20531;-81
2021/09/13 06:38:45;;;;;;;0.30;0.30;;;;;;;13.91;100.00;101161.72;4960906;28;20052;-81
2021/09/13 06:41:18;;;;;;;0.68;0.40;;;;;;;13.82;100.00;101176.31;4961498;28;20047;-83
2021/09/13 06:43:53;;;;;;;0.60;0.40;;;;;;;13.87;100.00;101170.81;4962645;28;20043;-81
2021/09/13 06:46:34;;;;;;;1.52;0.50;;;;;;;13.94;100.00;101166.59;4963834;28;20563;-81
2021/09/13 06:49:07;;;;;;;0.45;0.40;;;;;;;13.85;100.00;101167.53;4966851;28;20500;-81
2021/09/13 06:51:41;;;;;;;0.65;0.38;;;;;;;13.84;100.00;101171.38;4968953;28;20051;-80
2021/09/13 06:54:10;;;;;;;1.95;0.60;;;;;;;13.96;100.00;101177.25;4968719;28;20043;-82
2021/09/13 06:56:43;;;;;;;1.23;0.60;;;;;;;13.89;100.00;101174.03;4967215;28;20054;-82
2021/09/13 06:59:17;;;;;;;0.63;0.40;;;;;;;14.10;100.00;101180.13;4974787;28;20055;-81
2021/09/13 07:01:50;;;;;;;0.38;0.38;;;;;;;13.95;100.00;101172.91;4964378;28;20389;-82
2021/09/13 07:04:24;;;;;;;0.95;0.57;;;;;;;13.97;100.00;101186.28;4962470;28;20051;-81
2021/09/13 07:06:59;;;;;;;0.82;0.40;;;;;;;14.01;100.00;101193.63;4950452;28;20067;-81
2021/09/13 07:09:33;;;;;;;0.70;0.43;;;;;;;13.92;99.30;101198.09;4950757;28;20822;-82
2021/09/13 07:12:13;;;;;;;0.75;0.40;;;;;;;13.91;100.00;101204.69;4953225;28;20050;-83
2021/09/13 07:14:46;;;;;;;0.80;0.40;;;;;;;14.04;100.00;101214.91;4949126;28;20054;-82
2021/09/13 07:17:20;;;;;;;1.38;0.50;;;;;;;14.28;99.30;101200.44;4949712;28;20062;-83
2021/09/13 07:20:41;;;;;;;0.40;0.40;;;;;;;14.12;99.13;101208.00;4954817;28;20047;-80
2021/09/13 07:23:17;;;;;;;0.88;0.40;;;;;;;14.16;99.38;101217.28;4938777;28;20050;-83
2021/09/13 07:25:51;;;;;;;0.50;0.32;;;;;;;14.00;99.72;101215.81;4943134;28;20055;-82
2021/09/13 07:28:28;;;;;;;0.70;0.50;;;;;;;14.07;99.15;101208.88;4949428;28;20051;-83
2021/09/13 07:31:01;;;;;;;1.33;0.52;;;;;;;14.06;97.49;101222.88;4952251;28;20047;-82
2021/09/13 07:33:34;;;;;;;1.85;0.75;;;;;;;14.14;97.44;101227.72;4941513;28;20059;-84
2021/09/13 07:36:07;;;;;;;0.82;0.50;;;;;;;14.02;96.91;101219.06;4955741;28;20602;-82
2021/09/13 07:38:41;;;;;;;1.10;0.50;;;;;;;14.20;95.54;101228.47;4942143;28;20039;-81
2021/09/13 07:41:16;;;;;;;0.55;0.43;;;;;;;14.15;96.41;101225.78;4941459;28;20058;-82
2021/09/13 07:43:44;;;;;;;0.60;0.28;;;;;;;14.20;97.14;101232.00;4946054;28;20065;-81
2021/09/13 07:46:12;;;;;;;1.25;0.50;;;;;;;14.22;95.00;101232.50;4941500;28;20062;-81
2021/09/13 07:48:45;;;;;;;0.40;0.38;;;;;;;14.17;94.63;101242.72;4945665;28;20061;-80
2021/09/13 07:51:19;;;;;;;0.22;0.22;;;;;;;14.19;95.99;101241.31;4949062;28;20051;-81
2021/09/13 07:53:48;;;;;;;0.82;0.45;;;;;;;14.14;94.08;101241.41;4945165;28;20050;-83
2021/09/13 07:56:18;;;;;;;0.65;0.47;;;;;;;14.06;94.96;101237.34;4963130;28;21106;-83
2021/09/13 07:58:55;;;;;;;0.40;0.30;;;;;;;14.28;91.93;101228.63;4940066;28;20043;-81
2021/09/13 08:01:29;;;;;;;;;;;;;;;14.42;93.24;101247.91;4943337;28;20499;-81
2021/09/13 08:04:02;;;;;;;0.68;0.30;;;;;;;14.49;93.82;101244.81;4935354;28;19930;-82
2021/09/13 08:06:36;;;;;;;0.68;0.40;;;;;;;14.44;93.06;101251.19;4945012;28;20059;-81
2021/09/13 08:09:07;;;;;;;0.65;0.40;;;;;;;14.41;92.41;101250.94;4943985;28;20062;-82
2021/09/13 08:11:36;;;;;;;1.95;0.50;;;;;;;14.40;91.11;101249.31;4935460;28;20458;-82
2021/09/13 08:14:09;;;;;;;0.50;0.40;;;;;;;14.44;89.90;101250.34;4937044;28;20644;-80
2021/09/13 08:16:39;;;;;;;1.40;0.45;;;;;;;14.35;91.43;101263.03;4936385;28;20062;-81
2021/09/13 08:19:12;;;;;;;1.63;0.60;;;;;;;14.34;93.00;101264.97;4936481;28;20053;-82
2021/09/13 08:21:46;;;;;;;0.60;0.40;;;;;;;14.39;93.01;101253.13;4939312;28;20068;-82
2021/09/13 08:24:19;;;;;;;0.50;0.40;;;;;;;14.32;95.04;101260.91;4933757;28;20075;-83
2021/09/13 08:27:01;;;;;;;0.55;0.47;;;;;;;14.32;93.28;101260.91;4937153;28;20662;-82
2021/09/13 08:29:34;;;;;;;0.90;0.50;;;;;;;14.51;92.09;101261.75;4942280;28;20046;-82
2021/09/13 08:32:08;;;;;;;0.73;0.40;;;;;;;14.43;90.40;101268.72;4936788;28;20059;-81
2021/09/13 08:34:38;;;;;;;0.55;0.38;;;;;;;14.28;91.40;101268.88;4940250;28;21378;-82
2021/09/13 08:37:06;;;;;;;0.47;0.40;;;;;;;14.36;93.02;101275.63;4939622;28;20054;-81
2021/09/13 08:39:38;;;;;;;0.68;0.40;;;;;;;14.21;93.54;101273.88;4942049;28;20062;-82
2021/09/13 08:42:12;;;;;;;1.05;0.60;;;;;;;14.34;92.01;101280.59;4938384;28;20058;-80
2021/09/13 08:44:49;;;;;;;1.05;0.50;;;;;;;14.45;92.25;101276.63;4943805;28;20061;-85
2021/09/13 08:47:22;;;;;;;0.90;0.50;;;;;;;14.66;90.19;101281.91;4941735;28;20059;-82
2021/09/13 08:49:56;;;;;;;1.33;0.60;;;;;;;14.66;92.49;101295.59;4945966;28;20062;-83
2021/09/13 08:52:25;;;;;;;0.55;0.50;;;;;;;14.57;90.91;101298.13;4945589;28;20043;-83
2021/09/13 08:54:58;;;;;;;0.52;0.40;;;;;;;14.73;89.13;101279.63;4955563;28;20781;-82
2021/09/13 08:57:33;;;;;;;0.63;0.50;;;;;;;14.79;90.75;101294.91;4948219;28;20051;-82
2021/09/13 09:00:08;;;;;;;0.52;0.43;;;;;;;14.88;88.16;101297.78;4943624;28;20062;-82
2021/09/13 09:02:44;;;;;;;0.80;0.40;;;;;;;14.94;88.74;101286.47;4945912;28;20062;-84
2021/09/13 09:05:14;;;;;;;0.70;0.40;;;;;;;14.99;85.36;101298.47;4948914;28;20051;-82
2021/09/13 09:07:50;;;;;;;1.10;0.50;;;;;;;15.01;86.24;101291.59;4946876;28;20058;-82
2021/09/13 09:10:26;;;;;;;0.98;0.40;;;;;;;15.02;86.45;101298.69;4946063;28;20059;-84
2021/09/13 09:13:08;;;;;;;0.75;0.57;;;;;;;15.04;85.22;101299.22;4940887;28;20055;-80
2021/09/13 09:15:56;;;;;;;1.33;0.47;;;;;;;15.02;86.04;101303.38;4943722;28;20059;-83
2021/09/13 09:18:38;;;;;;;0.98;0.47;;;;;;;15.08;86.54;101302.16;4948375;28;20055;-85
2021/09/13 09:21:09;;;;;;;0.70;0.43;;;;;;;15.20;86.52;101308.03;4951830;28;20048;-85
2021/09/13 09:24:06;;;;;;;1.00;0.57;;;;;;;15.07;86.06;101308.78;4944880;28;20080;-82
2021/09/13 09:27:02;;;;;;;0.95;0.50;;;;;;;15.33;84.88;101311.16;4943603;28;20055;-84
2021/09/13 09:29:34;;;;;;;0.50;0.40;;;;;;;15.19;85.68;101314.66;4944140;28;20432;-82
2021/09/13 09:32:03;;;;;;;0.40;0.35;;;;;;;15.06;86.38;101315.38;4945516;28;20510;-83
2021/09/13 09:35:15;;;;;;;0.75;0.47;;;;;;;15.08;88.08;101319.47;4950437;28;20054;-84
2021/09/13 09:37:50;;;;;;;0.85;0.38;;;;;;;15.10;87.34;101313.69;4948420;28;20066;-83
2021/09/13 09:40:30;;;;;;;0.30;0.30;;;;;;;15.22;84.91;101310.47;4948259;28;20062;-83
2021/09/13 09:43:03;;;;;;;0.43;0.40;;;;;;;15.19;87.78;101317.41;4946681;28;20793;-86
2021/09/13 09:45:33;;;;;;;0.57;0.40;;;;;;;15.01;86.15;101299.81;4950946;28;20099;-84
2021/09/13 09:48:07;;;;;;;0.95;0.40;;;;;;;15.13;87.29;101318.56;4942347;28;20067;-83
2021/09/13 09:50:42;;;;;;;0.65;0.40;;;;;;;15.11;87.38;101323.53;4940684;28;20051;-82
2021/09/13 09:53:17;;;;;;;2.28;0.40;;;;;;;15.14;85.32;101306.50;4936502;28;20419;-82
2021/09/13 09:55:53;;;;;;;0.45;0.38;;;;;;;15.16;85.85;101322.63;4943547;28;20051;-83
2021/09/13 09:58:22;;;;;;;0.63;0.38;;;;;;;15.11;85.04;101316.13;4943121;28;21459;-83
2021/09/13 10:00:56;;;;;;;0.47;0.30;;;;;;;15.35;85.47;101309.75;4945454;28;20055;-82
2021/09/13 10:03:33;;;;;;;0.75;0.43;;;;;;;15.47;85.09;101314.81;4942889;28;20597;-83
2021/09/13 10:06:07;;;;;;;0.40;0.40;;;;;;;15.32;85.21;101304.88;4953425;28;20047;-83
2021/09/13 10:08:52;;;;;;;0.38;0.30;;;;;;;15.50;86.53;101316.13;4942053;28;20708;-81
2021/09/13 10:11:28;;;;;;;0.82;0.40;;;;;;;15.61;87.08;101309.38;4947953;28;20042;-83
2021/09/13 10:14:03;;;;;;;1.17;0.50;;;;;;;15.69;83.22;101319.66;4944084;28;20050;-83
2021/09/13 10:16:43;;;;;;;0.80;0.40;;;;;;;15.70;82.50;101323.22;4946599;28;20727;-82
2021/09/13 10:19:15;;;;;;;0.57;0.35;;;;;;;15.83;83.09;101313.47;4939624;28;20051;-82
2021/09/13 10:21:45;;;;;;;0.70;0.40;;;;;;;15.89;80.85;101315.00;4946170;28;20985;-83
2021/09/13 10:24:18;;;;;;;0.52;0.40;;;;;;;16.02;84.54;101308.72;4940317;28;20059;-83
2021/09/13 10:26:54;;;;;;;0.30;0.30;;;;;;;16.01;83.65;101307.09;4942765;28;20416;-81
2021/09/13 10:29:28;;;;;;;0.40;0.40;;;;;;;15.89;79.18;101306.75;4939902;28;20066;-82
2021/09/13 10:32:08;;;;;;;0.40;0.30;;;;;;;15.98;80.33;101305.75;4940617;28;20063;-82
2021/09/13 10:34:52;;;;;;;0.40;0.30;;;;;;;16.08;80.92;101301.22;4944132;28;20102;-82
2021/09/13 10:37:22;;;;;;;0.80;0.30;;;;;;;15.92;78.66;101300.66;4944175;28;20419;-82
2021/09/13 10:40:04;;;;;;;0.30;0.30;;;;;;;15.92;82.48;101312.47;4943369;28;20062;-84
2021/09/13 10:42:42;;;;;;;0.32;0.28;;;;;;;15.79;81.22;101314.03;4944560;28;20054;-83
2021/09/13 10:45:20;;;;;;;0.30;0.30;;;;;;;15.71;79.09;101314.69;4941990;28;20047;-83
2021/09/13 10:48:07;;;;;;;0.50;0.30;;;;;;;15.88;82.15;101314.19;4943673;28;20059;-84
2021/09/13 10:50:46;;;;;;;0.30;0.30;;;;;;;15.88;82.64;101314.19;4943249;28;20745;-84
2021/09/13 10:53:33;;;;;;;0.50;0.40;;;;;;;15.78;82.41;101314.31;4942033;28;21288;-82
2021/09/13 10:56:05;;;;;;;0.30;0.30;;;;;;;15.69;82.88;101318.84;4938329;28;20066;-82
2021/09/13 10:58:46;;;;;;;0.40;0.38;;;;;;;15.63;83.82;101320.84;4942558;28;20879;-84
2021/09/13 11:01:25;;;;;;;0.63;0.40;;;;;;;15.67;85.62;101324.63;4945027;28;20885;-82
2021/09/13 11:04:03;;;;;;;0.50;0.45;;;;;;;15.66;86.44;101328.50;4940169;28;20054;-85
2021/09/13 11:06:45;;;;;;;0.43;0.30;;;;;;;15.61;83.72;101323.09;4939070;28;20062;-81
2021/09/13 11:09:23;;;;;;;0.45;0.30;;;;;;;15.91;84.90;101324.56;4944519;28;20058;-83
2021/09/13 11:11:58;;;;;;;1.50;0.43;;;;;;;15.61;81.76;101329.38;4944953;28;20071;-83
2021/09/13 11:14:28;;;;;;;0.30;0.30;;;;;;;15.45;83.76;101306.03;4939452;28;20059;-82
2021/09/13 11:17:03;;;;;;;0.30;0.30;;;;;;;15.43;83.30;101325.53;4944378;28;20043;-82
2021/09/13 11:19:38;;;;;;;0.40;0.40;;;;;;;15.51;86.87;101328.72;4944582;28;20515;-87
2021/09/13 11:22:14;;;;;;;0.80;0.40;;;;;;;15.50;88.42;101327.09;4942339;28;20067;-84
2021/09/13 11:24:48;;;;;;;0.20;0.20;;;;;;;15.61;85.80;101325.84;4944695;28;20062;-82
2021/09/13 11:27:18;;;;;;;0.80;0.40;;;;;;;15.52;84.78;101324.88;4943159;28;20093;-87
2021/09/13 11:29:53;;;;;;;0.38;0.30;;;;;;;15.58;84.89;101326.44;4942048;28;20532;-81
2021/09/13 11:32:31;;;;;;;0.43;0.30;;;;;;;15.41;84.97;101316.81;4939432;28;20060;-84
2021/09/13 11:35:01;;;;;;;0.30;0.30;;;;;;;15.31;84.41;101325.16;4939319;28;20062;-82
2021/09/13 11:37:34;;;;;;;0.52;0.30;;;;;;;15.22;86.37;101335.16;4943209;28;20050;-82
2021/09/13 11:40:08;;;;;;;0.43;0.40;;;;;;;14.99;87.10;101337.66;4948802;28;20051;-85
2021/09/13 11:42:42;;;;;;;0.30;0.30;;;;;;;14.98;88.37;101346.19;4941895;28;20063;-84
2021/09/13 11:45:16;;;;;;;1.50;0.60;;;;;;;15.12;88.45;101347.06;4950858;28;20717;-82
2021/09/13 11:47:44;;;;;;;0.45;0.35;;;;;;;14.96;86.97;101341.78;4960942;28;20055;-83
2021/09/13 11:50:19;;;;;;;0.32;0.30;;;;;;;14.95;88.69;101342.91;4946322;28;21259;-84
2021/09/13 11:52:53;;;;;;;0.98;0.40;;;;;;;14.98;88.40;101337.94;4946098;28;20062;-82
2021/09/13 11:55:28;;;;;;;1.35;0.38;;;;;;;15.00;89.12;101341.19;4945432;28;20062;-83
2021/09/13 11:57:58;;;;;;;0.95;0.30;;;;;;;15.10;87.10;101341.09;4948708;28;20059;-83
2021/09/13 12:00:27;;;;;;;0.52;0.35;;;;;;;15.27;86.53;101346.91;4963461;28;20965;-85
2021/09/13 12:02:57;;;;;;;0.63;0.40;;;;;;;15.28;89.85;101345.75;4945908;28;20059;-83